Terminal Aerodrome Forecast
Issued by NWS

Current Version | Previous Version | Graphics & Text | Print | Product List | Glossary On
Versions: 1 2 3 4 5 6 7 8 9 10 11 12 13 14 15 16 17 18 19 20 21 22 23 24
000
FTUS41 KRLX 031700 RRA
TAFCKB
TAF
KCKB 031753Z 0318/0418 17009KT P6SM -RA OVC012
     FM032200 18010KT 4SM -RA BR OVC008
     FM040000 20009KT 3SM -RA BR OVC005
     FM040400 19007KT 2SM RA BR OVC003
     FM040800 28005KT 1SM +RA BR OVC003
     FM041300 32003KT 2SM RA BR OVC005
     FM041500 33004KT 2SM -RA BR OVC006=

USA.gov is the U.S. government's official web portal to all federal, state and local government web resources and services.